sensor_id;sensor_type;location;lat;lon;timestamp;pressure;altitude;pressure_sealevel;temperature;humidity
41254;BME280;26987;59.928;30.306;2023-05-09T00:01:20;102710.19;;;4.73;63.71
41254;BME280;26987;59.928;30.306;2023-05-09T00:03:47;102705.72;;;4.74;63.35
41254;BME280;26987;59.928;30.306;2023-05-09T00:06:18;102703.41;;;4.69;63.81
41254;BME280;26987;59.928;30.306;2023-05-09T00:08:46;102705.56;;;4.64;63.86
41254;BME280;26987;59.928;30.306;2023-05-09T00:11:14;102648.78;;;4.31;64.25
41254;BME280;26987;59.928;30.306;2023-05-09T00:13:43;102696.28;;;4.58;64.67
41254;BME280;26987;59.928;30.306;2023-05-09T00:16:11;102702.31;;;4.60;65.35
41254;BME280;26987;59.928;30.306;2023-05-09T00:18:39;102702.22;;;4.62;65.49
41254;BME280;26987;59.928;30.306;2023-05-09T00:21:07;102705.97;;;4.59;65.31
41254;BME280;26987;59.928;30.306;2023-05-09T00:23:37;102695.16;;;4.38;65.65
41254;BME280;26987;59.928;30.306;2023-05-09T00:26:05;102710.88;;;4.52;65.71
41254;BME280;26987;59.928;30.306;2023-05-09T00:28:33;102707.38;;;4.52;66.02
41254;BME280;26987;59.928;30.306;2023-05-09T00:31:02;102694.19;;;4.39;66.04
41254;BME280;26987;59.928;30.306;2023-05-09T00:33:30;102703.25;;;4.48;66.24
41254;BME280;26987;59.928;30.306;2023-05-09T00:35:58;102705.91;;;4.48;66.03
41254;BME280;26987;59.928;30.306;2023-05-09T00:38:26;102696.84;;;4.39;66.26
41254;BME280;26987;59.928;30.306;2023-05-09T00:40:55;102700.47;;;4.38;65.81
41254;BME280;26987;59.928;30.306;2023-05-09T00:43:23;102713.66;;;4.39;66.05
41254;BME280;26987;59.928;30.306;2023-05-09T00:45:51;102697.31;;;4.33;65.42
41254;BME280;26987;59.928;30.306;2023-05-09T00:48:20;102709.38;;;4.37;64.45
41254;BME280;26987;59.928;30.306;2023-05-09T00:50:48;102705.16;;;4.34;64.86
41254;BME280;26987;59.928;30.306;2023-05-09T00:53:18;102709.88;;;4.31;63.77
41254;BME280;26987;59.928;30.306;2023-05-09T00:55:46;102710.94;;;4.28;62.75
41254;BME280;26987;59.928;30.306;2023-05-09T00:58:15;102702.38;;;4.24;62.33
41254;BME280;26987;59.928;30.306;2023-05-09T01:00:44;102709.72;;;4.21;61.54
41254;BME280;26987;59.928;30.306;2023-05-09T01:03:14;102707.56;;;4.26;59.93
41254;BME280;26987;59.928;30.306;2023-05-09T01:05:52;102714.34;;;4.30;59.23
41254;BME280;26987;59.928;30.306;2023-05-09T01:08:43;102708.91;;;4.32;58.34
41254;BME280;26987;59.928;30.306;2023-05-09T01:11:22;102709.38;;;4.25;58.17
41254;BME280;26987;59.928;30.306;2023-05-09T01:14:03;102704.63;;;4.18;57.45
41254;BME280;26987;59.928;30.306;2023-05-09T01:16:38;102702.38;;;4.24;56.15
41254;BME280;26987;59.928;30.306;2023-05-09T01:19:21;102706.94;;;4.22;55.99
41254;BME280;26987;59.928;30.306;2023-05-09T01:21:55;102707.81;;;4.23;55.16
41254;BME280;26987;59.928;30.306;2023-05-09T01:24:43;102677.09;;;4.07;55.40
41254;BME280;26987;59.928;30.306;2023-05-09T01:27:21;102705.16;;;4.23;55.28
41254;BME280;26987;59.928;30.306;2023-05-09T01:29:57;102710.13;;;4.27;54.35
41254;BME280;26987;59.928;30.306;2023-05-09T01:32:27;102673.47;;;4.08;54.43
41254;BME280;26987;59.928;30.306;2023-05-09T01:34:59;102705.50;;;4.29;53.99
41254;BME280;26987;59.928;30.306;2023-05-09T01:37:30;102686.69;;;4.21;54.27
41254;BME280;26987;59.928;30.306;2023-05-09T01:39:59;102709.38;;;4.37;53.44
41254;BME280;26987;59.928;30.306;2023-05-09T01:42:37;102704.81;;;4.39;54.21
41254;BME280;26987;59.928;30.306;2023-05-09T01:45:09;102703.25;;;4.36;53.02
41254;BME280;26987;59.928;30.306;2023-05-09T01:47:38;102711.47;;;4.45;52.77
41254;BME280;26987;59.928;30.306;2023-05-09T01:50:10;102705.09;;;4.47;51.88
41254;BME280;26987;59.928;30.306;2023-05-09T01:52:40;102701.81;;;4.55;50.72
41254;BME280;26987;59.928;30.306;2023-05-09T01:55:09;102704.25;;;4.58;49.85
41254;BME280;26987;59.928;30.306;2023-05-09T01:57:39;102680.69;;;4.42;50.87
41254;BME280;26987;59.928;30.306;2023-05-09T02:00:11;102707.88;;;4.69;50.14
41254;BME280;26987;59.928;30.306;2023-05-09T02:02:40;102711.41;;;4.69;50.79
41254;BME280;26987;59.928;30.306;2023-05-09T02:05:10;102717.09;;;4.76;50.39
41254;BME280;26987;59.928;30.306;2023-05-09T02:07:40;102705.25;;;4.80;50.09
41254;BME280;26987;59.928;30.306;2023-05-09T02:10:09;102700.16;;;4.77;49.78
41254;BME280;26987;59.928;30.306;2023-05-09T02:12:38;102710.22;;;4.85;49.75
41254;BME280;26987;59.928;30.306;2023-05-09T02:15:07;102705.72;;;4.85;49.71
41254;BME280;26987;59.928;30.306;2023-05-09T02:17:41;102714.41;;;4.99;49.89
41254;BME280;26987;59.928;30.306;2023-05-09T02:20:09;102713.22;;;5.14;49.38
41254;BME280;26987;59.928;30.306;2023-05-09T02:22:38;102684.94;;;5.13;49.40
41254;BME280;26987;59.928;30.306;2023-05-09T02:25:08;102712.94;;;5.40;49.17
41254;BME280;26987;59.928;30.306;2023-05-09T02:27:37;102666.78;;;5.30;48.82
41254;BME280;26987;59.928;30.306;2023-05-09T02:30:08;102700.66;;;5.72;47.90
41254;BME280;26987;59.928;30.306;2023-05-09T02:32:38;102696.59;;;5.89;48.20
41254;BME280;26987;59.928;30.306;2023-05-09T02:35:09;102707.44;;;6.30;47.48
41254;BME280;26987;59.928;30.306;2023-05-09T02:37:39;102715.72;;;6.80;45.98
41254;BME280;26987;59.928;30.306;2023-05-09T02:40:08;102709.66;;;7.09;44.92
41254;BME280;26987;59.928;30.306;2023-05-09T02:42:37;102716.84;;;7.69;43.76
41254;BME280;26987;59.928;30.306;2023-05-09T02:45:06;102708.94;;;8.37;42.45
41254;BME280;26987;59.928;30.306;2023-05-09T02:47:35;102714.31;;;9.13;40.84
41254;BME280;26987;59.928;30.306;2023-05-09T02:50:04;102714.03;;;9.81;39.04
41254;BME280;26987;59.928;30.306;2023-05-09T02:52:36;102715.59;;;10.46;38.10
41254;BME280;26987;59.928;30.306;2023-05-09T02:55:05;102703.81;;;11.01;36.40
41254;BME280;26987;59.928;30.306;2023-05-09T02:57:36;102704.97;;;11.66;35.45
41254;BME280;26987;59.928;30.306;2023-05-09T03:00:06;102716.94;;;12.22;34.35
41254;BME280;26987;59.928;30.306;2023-05-09T03:02:35;102713.00;;;12.58;33.78
41254;BME280;26987;59.928;30.306;2023-05-09T03:05:05;102712.03;;;12.51;33.71
41254;BME280;26987;59.928;30.306;2023-05-09T03:07:36;102705.31;;;12.38;34.15
41254;BME280;26987;59.928;30.306;2023-05-09T03:10:05;102710.97;;;12.68;33.52
41254;BME280;26987;59.928;30.306;2023-05-09T03:12:33;102714.44;;;13.25;33.13
41254;BME280;26987;59.928;30.306;2023-05-09T03:15:01;102713.03;;;13.38;32.42
41254;BME280;26987;59.928;30.306;2023-05-09T03:17:30;102723.94;;;13.45;32.71
41254;BME280;26987;59.928;30.306;2023-05-09T03:19:58;102710.16;;;13.40;32.59
41254;BME280;26987;59.928;30.306;2023-05-09T03:22:25;102709.59;;;13.53;32.21
41254;BME280;26987;59.928;30.306;2023-05-09T03:25:00;102701.34;;;14.16;31.18
41254;BME280;26987;59.928;30.306;2023-05-09T03:27:29;102708.03;;;14.89;30.08
41254;BME280;26987;59.928;30.306;2023-05-09T03:29:57;102706.28;;;15.55;28.87
41254;BME280;26987;59.928;30.306;2023-05-09T03:32:26;102711.84;;;16.12;27.85
41254;BME280;26987;59.928;30.306;2023-05-09T03:34:54;102711.97;;;16.33;27.02
41254;BME280;26987;59.928;30.306;2023-05-09T03:37:22;102714.75;;;16.82;26.22
41254;BME280;26987;59.928;30.306;2023-05-09T03:39:50;102707.34;;;17.04;25.70
41254;BME280;26987;59.928;30.306;2023-05-09T03:42:20;102681.09;;;17.05;25.47
41254;BME280;26987;59.928;30.306;2023-05-09T03:44:50;102692.50;;;17.56;25.01
41254;BME280;26987;59.928;30.306;2023-05-09T03:47:20;102711.28;;;18.05;24.37
41254;BME280;26987;59.928;30.306;2023-05-09T03:49:49;102710.88;;;18.08;23.97
41254;BME280;26987;59.928;30.306;2023-05-09T03:52:20;102706.00;;;18.64;23.66
41254;BME280;26987;59.928;30.306;2023-05-09T03:54:48;102712.09;;;19.19;23.05
41254;BME280;26987;59.928;30.306;2023-05-09T03:57:17;102708.88;;;19.93;22.47
41254;BME280;26987;59.928;30.306;2023-05-09T03:59:49;102714.28;;;20.63;21.93
41254;BME280;26987;59.928;30.306;2023-05-09T04:02:17;102718.78;;;20.95;21.57
41254;BME280;26987;59.928;30.306;2023-05-09T04:04:46;102719.91;;;21.48;21.15
41254;BME280;26987;59.928;30.306;2023-05-09T04:07:18;102714.91;;;21.88;20.95
41254;BME280;26987;59.928;30.306;2023-05-09T04:09:46;102710.53;;;22.59;20.25
41254;BME280;26987;59.928;30.306;2023-05-09T04:12:15;102722.41;;;23.23;20.00
41254;BME280;26987;59.928;30.306;2023-05-09T04:14:43;102717.25;;;23.09;19.83
41254;BME280;26987;59.928;30.306;2023-05-09T04:17:12;102724.41;;;23.27;19.66
41254;BME280;26987;59.928;30.306;2023-05-09T04:19:40;102717.78;;;23.69;19.50
41254;BME280;26987;59.928;30.306;2023-05-09T04:22:08;102725.19;;;23.69;19.89
41254;BME280;26987;59.928;30.306;2023-05-09T04:24:36;102729.81;;;24.20;19.31
41254;BME280;26987;59.928;30.306;2023-05-09T04:27:04;102725.75;;;23.88;19.84
41254;BME280;26987;59.928;30.306;2023-05-09T04:29:32;102704.41;;;23.56;20.29
41254;BME280;26987;59.928;30.306;2023-05-09T04:32:00;102725.81;;;23.59;20.64
41254;BME280;26987;59.928;30.306;2023-05-09T04:34:32;102720.53;;;23.52;20.73
41254;BME280;26987;59.928;30.306;2023-05-09T04:37:05;102729.22;;;23.20;21.09
41254;BME280;26987;59.928;30.306;2023-05-09T04:39:33;102727.63;;;23.24;20.70
41254;BME280;26987;59.928;30.306;2023-05-09T04:42:10;102724.31;;;23.51;20.41
41254;BME280;26987;59.928;30.306;2023-05-09T04:44:38;102724.00;;;23.65;19.98
41254;BME280;26987;59.928;30.306;2023-05-09T04:47:06;102726.84;;;23.24;20.40
41254;BME280;26987;59.928;30.306;2023-05-09T04:49:35;102725.94;;;23.06;20.51
41254;BME280;26987;59.928;30.306;2023-05-09T04:52:03;102726.78;;;23.06;20.04
41254;BME280;26987;59.928;30.306;2023-05-09T04:54:32;102722.00;;;23.43;19.99
41254;BME280;26987;59.928;30.306;2023-05-09T04:57:00;102731.28;;;23.59;19.72
41254;BME280;26987;59.928;30.306;2023-05-09T04:59:29;102699.53;;;23.75;19.29
41254;BME280;26987;59.928;30.306;2023-05-09T05:01:57;102705.34;;;24.36;18.73
41254;BME280;26987;59.928;30.306;2023-05-09T05:04:25;102738.78;;;24.55;18.97
41254;BME280;26987;59.928;30.306;2023-05-09T05:06:55;102738.47;;;24.74;18.67
41254;BME280;26987;59.928;30.306;2023-05-09T05:09:23;102730.75;;;24.93;17.99
41254;BME280;26987;59.928;30.306;2023-05-09T05:11:51;102737.16;;;25.26;17.96
41254;BME280;26987;59.928;30.306;2023-05-09T05:14:19;102739.47;;;25.67;17.78
41254;BME280;26987;59.928;30.306;2023-05-09T05:16:47;102731.59;;;25.49;17.62
41254;BME280;26987;59.928;30.306;2023-05-09T05:19:14;102724.38;;;25.42;17.20
41254;BME280;26987;59.928;30.306;2023-05-09T05:21:42;102733.47;;;25.43;17.55
41254;BME280;26987;59.928;30.306;2023-05-09T05:24:12;102728.22;;;25.14;17.69
41254;BME280;26987;59.928;30.306;2023-05-09T05:26:40;102724.09;;;25.39;16.89
41254;BME280;26987;59.928;30.306;2023-05-09T05:29:08;102709.09;;;25.85;16.68
41254;BME280;26987;59.928;30.306;2023-05-09T05:31:36;102729.63;;;26.10;16.96
41254;BME280;26987;59.928;30.306;2023-05-09T05:34:04;102726.28;;;26.07;16.92
41254;BME280;26987;59.928;30.306;2023-05-09T05:36:32;102730.16;;;26.12;16.80
41254;BME280;26987;59.928;30.306;2023-05-09T05:39:00;102731.19;;;26.38;16.90
41254;BME280;26987;59.928;30.306;2023-05-09T05:41:29;102730.72;;;26.14;16.86
41254;BME280;26987;59.928;30.306;2023-05-09T05:43:57;102726.22;;;25.97;16.86
41254;BME280;26987;59.928;30.306;2023-05-09T05:46:25;102715.31;;;26.07;16.66
41254;BME280;26987;59.928;30.306;2023-05-09T05:48:53;102726.75;;;25.94;16.29
41254;BME280;26987;59.928;30.306;2023-05-09T05:51:23;102710.72;;;25.75;16.71
41254;BME280;26987;59.928;30.306;2023-05-09T05:53:51;102713.84;;;26.38;16.45
41254;BME280;26987;59.928;30.306;2023-05-09T05:56:20;102724.66;;;26.06;16.28
41254;BME280;26987;59.928;30.306;2023-05-09T05:58:50;102712.59;;;26.13;16.23
41254;BME280;26987;59.928;30.306;2023-05-09T06:01:19;102718.16;;;26.23;16.11
41254;BME280;26987;59.928;30.306;2023-05-09T06:03:47;102717.72;;;26.42;16.09
41254;BME280;26987;59.928;30.306;2023-05-09T06:06:22;102720.09;;;26.28;16.00
41254;BME280;26987;59.928;30.306;2023-05-09T06:08:49;102719.75;;;26.14;15.87
41254;BME280;26987;59.928;30.306;2023-05-09T06:11:18;102711.09;;;25.94;15.93
41254;BME280;26987;59.928;30.306;2023-05-09T06:13:46;102711.16;;;25.62;16.10
41254;BME280;26987;59.928;30.306;2023-05-09T06:16:15;102716.28;;;25.58;16.38
41254;BME280;26987;59.928;30.306;2023-05-09T06:18:43;102708.00;;;25.20;16.35
41254;BME280;26987;59.928;30.306;2023-05-09T06:21:11;102699.31;;;25.01;16.38
41254;BME280;26987;59.928;30.306;2023-05-09T06:23:39;102704.28;;;24.81;16.10
41254;BME280;26987;59.928;30.306;2023-05-09T06:26:07;102700.13;;;24.56;16.68
41254;BME280;26987;59.928;30.306;2023-05-09T06:28:35;102696.97;;;24.42;16.62
41254;BME280;26987;59.928;30.306;2023-05-09T06:31:02;102695.09;;;24.26;16.95
41254;BME280;26987;59.928;30.306;2023-05-09T06:33:32;102695.34;;;24.24;17.03
41254;BME280;26987;59.928;30.306;2023-05-09T06:35:59;102690.63;;;24.02;16.81
41254;BME280;26987;59.928;30.306;2023-05-09T06:38:27;102703.25;;;23.86;16.80
41254;BME280;26987;59.928;30.306;2023-05-09T06:40:55;102692.66;;;23.55;17.28
41254;BME280;26987;59.928;30.306;2023-05-09T06:43:23;102691.09;;;23.60;17.10
41254;BME280;26987;59.928;30.306;2023-05-09T06:45:51;102688.66;;;23.46;17.00
41254;BME280;26987;59.928;30.306;2023-05-09T06:48:19;102670.31;;;23.47;16.87
41254;BME280;26987;59.928;30.306;2023-05-09T06:50:50;102681.13;;;23.53;17.04
41254;BME280;26987;59.928;30.306;2023-05-09T06:53:18;102686.34;;;22.79;17.26
41254;BME280;26987;59.928;30.306;2023-05-09T06:55:46;102691.19;;;22.24;17.67
41254;BME280;26987;59.928;30.306;2023-05-09T06:58:14;102688.63;;;21.75;17.89
41254;BME280;26987;59.928;30.306;2023-05-09T07:00:42;102670.66;;;21.31;18.20
41254;BME280;26987;59.928;30.306;2023-05-09T07:03:09;102682.41;;;20.82;18.81
41254;BME280;26987;59.928;30.306;2023-05-09T07:05:38;102684.22;;;20.32;19.26
41254;BME280;26987;59.928;30.306;2023-05-09T07:08:07;102683.38;;;19.87;19.71
41254;BME280;26987;59.928;30.306;2023-05-09T07:10:35;102674.22;;;19.56;20.12
41254;BME280;26987;59.928;30.306;2023-05-09T07:13:04;102665.44;;;19.22;20.47
41254;BME280;26987;59.928;30.306;2023-05-09T07:15:31;102676.50;;;19.27;20.48
41254;BME280;26987;59.928;30.306;2023-05-09T07:17:59;102675.22;;;18.84;21.02
41254;BME280;26987;59.928;30.306;2023-05-09T07:20:27;102670.97;;;18.49;21.41
41254;BME280;26987;59.928;30.306;2023-05-09T07:22:55;102672.25;;;18.26;21.57
41254;BME280;26987;59.928;30.306;2023-05-09T07:25:25;102668.09;;;17.96;22.07
41254;BME280;26987;59.928;30.306;2023-05-09T07:27:53;102661.19;;;17.33;22.66
41254;BME280;26987;59.928;30.306;2023-05-09T07:30:21;102664.47;;;17.08;23.40
41254;BME280;26987;59.928;30.306;2023-05-09T07:32:48;102656.47;;;16.99;23.38
41254;BME280;26987;59.928;30.306;2023-05-09T07:35:17;102650.84;;;16.94;23.62
41254;BME280;26987;59.928;30.306;2023-05-09T07:37:45;102653.56;;;16.94;23.92
41254;BME280;26987;59.928;30.306;2023-05-09T07:40:13;102651.44;;;16.89;24.24
41254;BME280;26987;59.928;30.306;2023-05-09T07:42:43;102651.34;;;16.69;24.58
41254;BME280;26987;59.928;30.306;2023-05-09T07:45:15;102636.56;;;16.65;24.85
41254;BME280;26987;59.928;30.306;2023-05-09T07:47:43;102641.91;;;16.51;24.92
41254;BME280;26987;59.928;30.306;2023-05-09T07:50:11;102631.66;;;16.40;24.98
41254;BME280;26987;59.928;30.306;2023-05-09T07:52:39;102632.00;;;16.30;25.01
41254;BME280;26987;59.928;30.306;2023-05-09T07:55:07;102640.09;;;16.23;25.22
41254;BME280;26987;59.928;30.306;2023-05-09T07:57:35;102636.06;;;16.12;25.46
41254;BME280;26987;59.928;30.306;2023-05-09T08:00:06;102625.75;;;16.30;25.35
41254;BME280;26987;59.928;30.306;2023-05-09T08:02:41;102623.97;;;16.44;24.95
41254;BME280;26987;59.928;30.306;2023-05-09T08:05:09;102623.47;;;16.26;25.16
41254;BME280;26987;59.928;30.306;2023-05-09T08:07:38;102622.47;;;16.06;25.43
41254;BME280;26987;59.928;30.306;2023-05-09T08:10:08;102620.22;;;16.09;25.59
41254;BME280;26987;59.928;30.306;2023-05-09T08:12:36;102620.69;;;16.20;25.58
41254;BME280;26987;59.928;30.306;2023-05-09T08:15:06;102612.22;;;16.30;25.64
41254;BME280;26987;59.928;30.306;2023-05-09T08:17:34;102618.66;;;16.22;25.66
41254;BME280;26987;59.928;30.306;2023-05-09T08:20:02;102612.47;;;16.35;25.81
41254;BME280;26987;59.928;30.306;2023-05-09T08:22:33;102612.25;;;16.36;25.87
41254;BME280;26987;59.928;30.306;2023-05-09T08:25:01;102612.41;;;16.28;25.75
41254;BME280;26987;59.928;30.306;2023-05-09T08:27:29;102607.91;;;16.35;26.04
41254;BME280;26987;59.928;30.306;2023-05-09T08:29:56;102605.84;;;16.44;25.78
41254;BME280;26987;59.928;30.306;2023-05-09T08:32:26;102603.59;;;16.55;25.75
41254;BME280;26987;59.928;30.306;2023-05-09T08:34:54;102556.66;;;16.34;25.63
41254;BME280;26987;59.928;30.306;2023-05-09T08:37:22;102598.00;;;16.63;25.53
41254;BME280;26987;59.928;30.306;2023-05-09T08:39:53;102584.34;;;16.36;25.41
41254;BME280;26987;59.928;30.306;2023-05-09T08:42:21;102592.88;;;16.33;25.79
41254;BME280;26987;59.928;30.306;2023-05-09T08:44:49;102591.66;;;16.35;25.77
41254;BME280;26987;59.928;30.306;2023-05-09T08:47:17;102590.41;;;16.38;25.88
41254;BME280;26987;59.928;30.306;2023-05-09T08:49:49;102593.63;;;16.62;25.66
41254;BME280;26987;59.928;30.306;2023-05-09T08:52:17;102592.56;;;16.56;25.88
41254;BME280;26987;59.928;30.306;2023-05-09T08:54:47;102594.19;;;16.44;25.60
41254;BME280;26987;59.928;30.306;2023-05-09T08:57:15;102565.94;;;16.18;25.76
41254;BME280;26987;59.928;30.306;2023-05-09T08:59:45;102581.25;;;16.39;26.00
41254;BME280;26987;59.928;30.306;2023-05-09T09:02:14;102579.78;;;16.36;26.09
41254;BME280;26987;59.928;30.306;2023-05-09T09:04:42;102576.03;;;16.37;25.76
41254;BME280;26987;59.928;30.306;2023-05-09T09:07:12;102587.97;;;16.50;25.89
41254;BME280;26987;59.928;30.306;2023-05-09T09:09:43;102590.88;;;16.48;25.62
41254;BME280;26987;59.928;30.306;2023-05-09T09:12:13;102578.53;;;16.39;25.73
41254;BME280;26987;59.928;30.306;2023-05-09T09:14:46;102583.34;;;16.44;25.53
41254;BME280;26987;59.928;30.306;2023-05-09T09:17:18;102588.16;;;16.48;25.44
41254;BME280;26987;59.928;30.306;2023-05-09T09:19:48;102570.66;;;16.44;25.38
41254;BME280;26987;59.928;30.306;2023-05-09T09:22:18;102581.50;;;16.44;25.29
41254;BME280;26987;59.928;30.306;2023-05-09T09:24:46;102574.97;;;16.32;25.81
41254;BME280;26987;59.928;30.306;2023-05-09T09:27:14;102578.34;;;16.41;25.61
41254;BME280;26987;59.928;30.306;2023-05-09T09:29:42;102582.09;;;16.46;25.72
41254;BME280;26987;59.928;30.306;2023-05-09T09:32:10;102569.59;;;16.38;25.78
41254;BME280;26987;59.928;30.306;2023-05-09T09:34:38;102570.22;;;16.41;25.73
41254;BME280;26987;59.928;30.306;2023-05-09T09:37:05;102577.72;;;16.45;25.78
41254;BME280;26987;59.928;30.306;2023-05-09T09:39:36;102581.28;;;16.46;25.76
41254;BME280;26987;59.928;30.306;2023-05-09T09:42:11;102574.44;;;16.50;25.96
41254;BME280;26987;59.928;30.306;2023-05-09T09:44:39;102559.13;;;16.29;25.73
41254;BME280;26987;59.928;30.306;2023-05-09T09:47:09;102570.00;;;16.42;26.09
41254;BME280;26987;59.928;30.306;2023-05-09T09:49:37;102572.31;;;16.38;25.83
41254;BME280;26987;59.928;30.306;2023-05-09T09:52:21;102566.44;;;16.35;26.15
41254;BME280;26987;59.928;30.306;2023-05-09T09:54:53;102571.00;;;16.27;26.12
41254;BME280;26987;59.928;30.306;2023-05-09T09:57:34;102554.16;;;16.32;26.05
41254;BME280;26987;59.928;30.306;2023-05-09T10:00:03;102553.03;;;16.13;26.27
41254;BME280;26987;59.928;30.306;2023-05-09T10:02:32;102568.16;;;16.07;26.55
41254;BME280;26987;59.928;30.306;2023-05-09T10:05:06;102546.31;;;16.02;26.44
41254;BME280;26987;59.928;30.306;2023-05-09T10:07:34;102557.59;;;15.84;26.68
41254;BME280;26987;59.928;30.306;2023-05-09T10:10:04;102551.53;;;15.75;26.91
41254;BME280;26987;59.928;30.306;2023-05-09T10:12:33;102553.38;;;15.74;27.12
41254;BME280;26987;59.928;30.306;2023-05-09T10:15:03;102551.44;;;15.61;27.10
41254;BME280;26987;59.928;30.306;2023-05-09T10:17:33;102550.28;;;15.49;27.21
41254;BME280;26987;59.928;30.306;2023-05-09T10:20:03;102543.16;;;15.41;27.52
41254;BME280;26987;59.928;30.306;2023-05-09T10:22:32;102548.16;;;15.44;27.39
41254;BME280;26987;59.928;30.306;2023-05-09T10:25:04;102541.28;;;15.42;27.34
41254;BME280;26987;59.928;30.306;2023-05-09T10:27:34;102545.22;;;15.39;27.54
41254;BME280;26987;59.928;30.306;2023-05-09T10:30:06;102545.25;;;15.46;27.60
41254;BME280;26987;59.928;30.306;2023-05-09T10:32:47;102539.53;;;15.56;27.37
41254;BME280;26987;59.928;30.306;2023-05-09T10:35:17;102444.16;;;14.83;27.75
41254;BME280;26987;59.928;30.306;2023-05-09T10:37:45;102528.94;;;15.32;27.51
41254;BME280;26987;59.928;30.306;2023-05-09T10:40:15;102535.91;;;15.48;27.71
41254;BME280;26987;59.928;30.306;2023-05-09T10:42:45;102537.22;;;15.53;27.91
41254;BME280;26987;59.928;30.306;2023-05-09T10:45:13;102516.09;;;15.34;27.94
41254;BME280;26987;59.928;30.306;2023-05-09T10:47:42;102535.13;;;15.55;27.83
41254;BME280;26987;59.928;30.306;2023-05-09T10:50:11;102532.81;;;15.51;27.73
41254;BME280;26987;59.928;30.306;2023-05-09T10:53:04;102534.75;;;15.58;27.89
41254;BME280;26987;59.928;30.306;2023-05-09T10:55:37;102531.72;;;15.39;28.26
41254;BME280;26987;59.928;30.306;2023-05-09T10:58:23;102528.19;;;15.45;28.23
41254;BME280;26987;59.928;30.306;2023-05-09T11:00:54;102524.91;;;15.21;28.66
41254;BME280;26987;59.928;30.306;2023-05-09T11:03:22;102526.50;;;15.16;28.55
41254;BME280;26987;59.928;30.306;2023-05-09T11:05:53;102524.78;;;15.08;28.59
41254;BME280;26987;59.928;30.306;2023-05-09T11:08:23;102514.13;;;14.99;28.96
41254;BME280;26987;59.928;30.306;2023-05-09T11:10:54;102514.59;;;14.88;29.07
41254;BME280;26987;59.928;30.306;2023-05-09T11:13:23;102508.59;;;14.86;29.61
41254;BME280;26987;59.928;30.306;2023-05-09T11:16:10;102523.63;;;14.95;29.83
41254;BME280;26987;59.928;30.306;2023-05-09T11:18:56;102518.66;;;14.99;30.38
41254;BME280;26987;59.928;30.306;2023-05-09T11:21:24;102518.16;;;14.88;30.42
41254;BME280;26987;59.928;30.306;2023-05-09T11:23:52;102509.66;;;14.92;30.28
41254;BME280;26987;59.928;30.306;2023-05-09T11:26:27;102516.25;;;15.04;30.53
41254;BME280;26987;59.928;30.306;2023-05-09T11:28:58;102510.38;;;15.00;30.04
41254;BME280;26987;59.928;30.306;2023-05-09T11:31:28;102510.91;;;14.89;30.15
41254;BME280;26987;59.928;30.306;2023-05-09T11:34:00;102510.94;;;14.74;30.09
41254;BME280;26987;59.928;30.306;2023-05-09T11:36:30;102507.13;;;14.68;30.42
41254;BME280;26987;59.928;30.306;2023-05-09T11:39:00;102496.72;;;14.65;30.31
41254;BME280;26987;59.928;30.306;2023-05-09T11:41:30;102502.88;;;14.59;29.98
41254;BME280;26987;59.928;30.306;2023-05-09T11:43:58;102498.91;;;14.55;29.96
41254;BME280;26987;59.928;30.306;2023-05-09T11:46:26;102492.47;;;14.56;30.17
41254;BME280;26987;59.928;30.306;2023-05-09T11:48:54;102504.53;;;14.60;30.20
41254;BME280;26987;59.928;30.306;2023-05-09T11:51:23;102495.50;;;14.68;30.26
41254;BME280;26987;59.928;30.306;2023-05-09T11:53:52;102491.84;;;14.75;30.21
41254;BME280;26987;59.928;30.306;2023-05-09T11:56:20;102478.53;;;14.74;29.62
41254;BME280;26987;59.928;30.306;2023-05-09T11:58:51;102481.19;;;14.89;29.67
41254;BME280;26987;59.928;30.306;2023-05-09T12:01:19;102467.31;;;14.92;29.63
41254;BME280;26987;59.928;30.306;2023-05-09T12:03:47;102483.38;;;15.00;28.68
41254;BME280;26987;59.928;30.306;2023-05-09T12:06:16;102475.06;;;15.02;28.87
41254;BME280;26987;59.928;30.306;2023-05-09T12:08:44;102459.78;;;14.87;28.65
41254;BME280;26987;59.928;30.306;2023-05-09T12:11:13;102469.66;;;15.02;28.67
41254;BME280;26987;59.928;30.306;2023-05-09T12:13:45;102471.41;;;15.10;28.50
41254;BME280;26987;59.928;30.306;2023-05-09T12:16:16;102467.28;;;15.14;28.45
41254;BME280;26987;59.928;30.306;2023-05-09T12:18:45;102469.34;;;15.12;28.44
41254;BME280;26987;59.928;30.306;2023-05-09T12:21:13;102452.34;;;15.18;28.29
41254;BME280;26987;59.928;30.306;2023-05-09T12:23:41;102456.06;;;15.17;28.30
41254;BME280;26987;59.928;30.306;2023-05-09T12:26:09;102459.84;;;15.23;28.44
41254;BME280;26987;59.928;30.306;2023-05-09T12:28:37;102446.59;;;15.28;27.97
41254;BME280;26987;59.928;30.306;2023-05-09T12:31:05;102435.22;;;15.33;27.77
41254;BME280;26987;59.928;30.306;2023-05-09T12:33:36;102446.44;;;15.36;27.54
41254;BME280;26987;59.928;30.306;2023-05-09T12:36:06;102442.28;;;15.34;27.76
41254;BME280;26987;59.928;30.306;2023-05-09T12:38:35;102430.59;;;15.26;27.73
41254;BME280;26987;59.928;30.306;2023-05-09T12:41:04;102424.31;;;15.19;27.84
41254;BME280;26987;59.928;30.306;2023-05-09T12:43:34;102428.88;;;15.19;27.85
41254;BME280;26987;59.928;30.306;2023-05-09T12:46:03;102432.81;;;15.16;27.88
41254;BME280;26987;59.928;30.306;2023-05-09T12:48:36;102429.66;;;15.12;27.89
41254;BME280;26987;59.928;30.306;2023-05-09T12:51:05;102413.44;;;15.12;27.81
41254;BME280;26987;59.928;30.306;2023-05-09T12:53:37;102414.97;;;15.22;27.99
41254;BME280;26987;59.928;30.306;2023-05-09T12:56:12;102414.81;;;15.30;27.81